createdAt,value
2022-08-25T00:01:50.845Z,3.30
2022-08-25T00:04:20.937Z,3.60
2022-08-25T00:06:50.198Z,3.42
2022-08-25T00:09:21.930Z,3.90
2022-08-25T00:11:50.743Z,3.57
2022-08-25T00:14:22.559Z,3.78
2022-08-25T00:16:50.543Z,3.90
2022-08-25T00:19:21.225Z,3.95
2022-08-25T00:21:49.509Z,4.25
2022-08-25T00:24:19.841Z,4.18
2022-08-25T00:26:50.662Z,4.00
2022-08-25T00:29:20.513Z,3.90
2022-08-25T00:31:48.866Z,4.45
2022-08-25T00:34:23.002Z,3.60
2022-08-25T00:36:51.562Z,3.90
2022-08-25T00:39:21.865Z,4.60
2022-08-25T00:41:51.615Z,4.88
2022-08-25T00:44:21.154Z,3.85
2022-08-25T00:46:51.629Z,4.18
2022-08-25T00:49:25.711Z,3.97
2022-08-25T00:51:58.278Z,4.38
2022-08-25T00:56:57.394Z,4.28
2022-08-25T00:59:27.577Z,4.38
2022-08-25T01:01:56.270Z,4.10
2022-08-25T01:04:24.453Z,4.10
2022-08-25T01:06:53.270Z,3.97
2022-08-25T01:09:21.408Z,4.05
2022-08-25T01:11:49.740Z,4.63
2022-08-25T01:14:21.170Z,4.38
2022-08-25T01:16:51.202Z,3.92
2022-08-25T01:19:24.526Z,4.40
2022-08-25T01:21:55.014Z,4.05
2022-08-25T01:24:31.403Z,4.68
2022-08-25T01:26:59.576Z,4.97
2022-08-25T01:29:27.710Z,4.40
2022-08-25T01:31:58.770Z,4.18
2022-08-25T01:34:28.017Z,4.15
2022-08-25T01:36:58.530Z,3.28
2022-08-25T01:39:29.110Z,3.55
2022-08-25T01:42:10.607Z,3.78
2022-08-25T01:44:40.293Z,3.80
2022-08-25T01:47:09.077Z,3.38
2022-08-25T01:49:37.104Z,3.10
2022-08-25T01:52:13.566Z,3.90
2022-08-25T01:54:41.430Z,3.67
2022-08-25T01:57:09.412Z,3.85
2022-08-25T01:59:37.474Z,4.22
2022-08-25T02:02:06.069Z,4.22
2022-08-25T02:04:35.063Z,4.20
2022-08-25T02:07:05.560Z,4.38
2022-08-25T02:09:35.883Z,4.10
2022-08-25T02:12:04.730Z,4.20
2022-08-25T02:14:32.609Z,4.00
2022-08-25T02:17:00.576Z,4.15
2022-08-25T02:19:30.944Z,4.35
2022-08-25T02:21:59.785Z,4.00
2022-08-25T02:24:27.731Z,4.22
2022-08-25T02:26:58.023Z,4.72
2022-08-25T02:29:26.315Z,4.25
2022-08-25T02:31:54.394Z,4.10
2022-08-25T02:34:22.375Z,4.40
2022-08-25T02:36:50.200Z,3.97
2022-08-25T02:39:21.042Z,4.10
2022-08-25T02:41:49.080Z,4.45
2022-08-25T02:44:18.744Z,4.88
2022-08-25T02:46:46.621Z,4.30
2022-08-25T02:49:14.411Z,4.45
2022-08-25T02:51:42.917Z,4.88
2022-08-25T02:54:10.779Z,4.35
2022-08-25T02:56:38.853Z,4.55
2022-08-25T02:59:06.925Z,4.47
2022-08-25T03:01:36.370Z,4.88
2022-08-25T03:04:04.699Z,4.47
2022-08-25T03:06:32.677Z,4.22
2022-08-25T03:09:01.384Z,4.55
2022-08-25T03:11:29.636Z,4.60
2022-08-25T03:13:57.549Z,4.30
2022-08-25T03:16:27.634Z,4.70
2022-08-25T03:18:58.313Z,4.00
2022-08-25T03:21:26.840Z,4.45
2022-08-25T03:23:54.889Z,4.53
2022-08-25T03:26:40.446Z,4.78
2022-08-25T03:29:08.999Z,4.07
2022-08-25T03:31:37.235Z,4.28
2022-08-25T03:34:06.997Z,4.00
2022-08-25T03:36:34.856Z,4.65
2022-08-25T03:39:02.697Z,5.20
2022-08-25T03:41:33.428Z,4.20
2022-08-25T03:44:01.968Z,4.00
2022-08-25T03:46:32.285Z,4.90
2022-08-25T03:49:02.079Z,4.70
2022-08-25T03:51:34.076Z,4.75
2022-08-25T03:54:03.487Z,4.80
2022-08-25T03:56:31.755Z,4.22
2022-08-25T03:58:59.893Z,4.90
2022-08-25T04:01:28.033Z,4.25
2022-08-25T04:03:56.345Z,4.63
2022-08-25T04:06:24.545Z,5.18
2022-08-25T04:08:53.819Z,4.55
2022-08-25T04:11:24.241Z,4.30
2022-08-25T04:13:53.978Z,4.68
2022-08-25T04:16:24.985Z,5.07
2022-08-25T04:18:55.052Z,4.55
2022-08-25T04:21:24.394Z,5.28
2022-08-25T04:23:55.455Z,4.72
2022-08-25T04:26:25.244Z,5.30
2022-08-25T04:28:53.108Z,5.22
2022-08-25T04:31:22.750Z,5.47
2022-08-25T04:33:50.778Z,4.72
2022-08-25T04:36:20.095Z,4.93
2022-08-25T04:38:49.476Z,4.93
2022-08-25T04:41:21.292Z,5.05
2022-08-25T04:43:49.220Z,4.83
2022-08-25T04:46:20.799Z,5.28
2022-08-25T04:48:49.808Z,5.57
2022-08-25T04:51:19.755Z,4.57
2022-08-25T04:53:48.026Z,5.45
2022-08-25T04:56:19.841Z,5.30
2022-08-25T04:58:47.876Z,5.53
2022-08-25T05:01:17.806Z,5.90
2022-08-25T05:03:46.588Z,5.60
2022-08-25T05:06:16.354Z,4.75
2022-08-25T05:08:45.693Z,5.00
2022-08-25T05:11:17.346Z,5.30
2022-08-25T05:13:51.387Z,4.63
2022-08-25T05:16:21.386Z,5.55
2022-08-25T05:18:49.638Z,5.03
2022-08-25T05:21:20.067Z,5.38
2022-08-25T05:23:48.919Z,5.38
2022-08-25T05:26:20.583Z,5.22
2022-08-25T05:28:51.752Z,4.20
2022-08-25T05:31:21.341Z,5.15
2022-08-25T05:33:49.555Z,4.93
2022-08-25T05:36:19.743Z,5.55
2022-08-25T05:38:48.003Z,4.57
2022-08-25T05:41:17.991Z,4.88
2022-08-25T05:43:48.070Z,5.60
2022-08-25T05:46:19.610Z,4.82
2022-08-25T05:48:47.543Z,5.87
2022-08-25T05:51:16.056Z,5.50
2022-08-25T05:53:45.614Z,6.82
2022-08-25T05:56:14.251Z,5.97
2022-08-25T05:58:43.215Z,6.70
2022-08-25T06:01:36.935Z,6.05
2022-08-25T06:04:06.476Z,6.45
2022-08-25T06:06:34.562Z,7.00
2022-08-25T06:09:06.828Z,7.88
2022-08-25T06:11:34.696Z,6.05
2022-08-25T06:14:02.666Z,6.65
2022-08-25T06:16:31.107Z,6.63
2022-08-25T06:18:59.045Z,5.93
2022-08-25T06:21:29.020Z,6.80
2022-08-25T06:23:57.141Z,6.80
2022-08-25T06:26:25.346Z,7.57
2022-08-25T06:28:53.925Z,7.80
2022-08-25T06:31:23.102Z,7.85
2022-08-25T06:33:52.031Z,8.15
2022-08-25T06:36:20.288Z,7.22
2022-08-25T06:38:49.533Z,6.30
2022-08-25T06:41:17.573Z,7.57
2022-08-25T06:43:49.925Z,6.72
2022-08-25T06:46:21.903Z,7.18
2022-08-25T06:48:58.332Z,6.18
2022-08-25T06:51:27.561Z,6.63
2022-08-25T06:53:56.796Z,7.22
2022-08-25T06:56:24.657Z,8.07
2022-08-25T06:58:54.514Z,7.15
2022-08-25T07:01:27.089Z,8.73
2022-08-25T07:04:00.240Z,8.45
2022-08-25T07:06:31.002Z,7.82
2022-08-25T07:09:01.017Z,7.95
2022-08-25T07:11:29.322Z,8.95
2022-08-25T07:13:57.202Z,9.95
2022-08-25T07:16:29.878Z,10.98
2022-08-25T07:19:00.170Z,10.55
2022-08-25T07:21:33.385Z,8.38
2022-08-25T07:24:05.313Z,8.38
2022-08-25T07:26:38.568Z,9.90
2022-08-25T07:31:36.427Z,8.77
2022-08-25T07:34:23.353Z,7.63
2022-08-25T07:36:51.602Z,9.32
2022-08-25T07:39:22.185Z,9.73
2022-08-25T07:41:51.951Z,6.82
2022-08-25T07:44:21.816Z,6.97
2022-08-25T07:46:50.886Z,8.57
2022-08-25T07:49:23.339Z,8.25
2022-08-25T07:52:03.945Z,8.35
2022-08-25T07:54:35.613Z,7.22
2022-08-25T07:57:07.798Z,7.03
2022-08-25T07:59:39.339Z,10.57
2022-08-25T08:02:08.843Z,9.27
2022-08-25T08:04:37.878Z,9.40
2022-08-25T08:07:06.699Z,9.75
2022-08-25T08:09:41.442Z,9.30
2022-08-25T08:12:10.640Z,8.32
2022-08-25T08:14:39.595Z,9.70
2022-08-25T08:17:13.653Z,8.50
2022-08-25T08:19:44.863Z,7.75
2022-08-25T08:22:19.018Z,7.15
2022-08-25T08:24:54.676Z,8.23
2022-08-25T08:27:25.194Z,8.57
2022-08-25T08:29:53.706Z,7.95
2022-08-25T08:32:23.834Z,8.73
2022-08-25T08:34:58.517Z,6.75
2022-08-25T08:37:26.419Z,7.72
2022-08-25T08:39:57.206Z,7.72
2022-08-25T08:42:42.983Z,8.48
2022-08-25T08:45:27.234Z,8.38
2022-08-25T08:48:11.861Z,8.07
2022-08-25T08:50:50.580Z,8.32
2022-08-25T08:53:26.058Z,8.13
2022-08-25T08:55:58.695Z,7.43
2022-08-25T08:58:34.146Z,7.95
2022-08-25T09:01:03.044Z,7.45
2022-08-25T09:03:37.262Z,8.07
2022-08-25T09:06:12.652Z,8.27
2022-08-25T09:08:44.962Z,9.07
2022-08-25T09:11:24.300Z,9.07
2022-08-25T09:14:20.590Z,8.93
2022-08-25T09:16:56.484Z,10.20
2022-08-25T09:19:47.192Z,8.60
2022-08-25T09:22:35.763Z,8.77
2022-08-25T09:25:12.231Z,9.32
2022-08-25T09:27:53.442Z,8.45
2022-08-25T09:30:25.091Z,9.40
2022-08-25T09:33:03.795Z,9.77
2022-08-25T09:35:36.896Z,9.20
2022-08-25T09:38:08.867Z,8.52
2022-08-25T09:40:40.250Z,9.43
2022-08-25T09:43:21.874Z,8.82
2022-08-25T09:45:57.361Z,9.63
2022-08-25T09:48:28.703Z,8.55
2022-08-25T09:53:33.960Z,9.18
2022-08-25T09:56:06.741Z,8.57
2022-08-25T09:58:36.289Z,8.32
2022-08-25T10:01:13.152Z,9.40
2022-08-25T10:03:58.701Z,9.82
2022-08-25T10:06:28.379Z,8.70
2022-08-25T10:09:02.202Z,9.55
2022-08-25T10:11:41.639Z,8.40
2022-08-25T10:14:21.315Z,8.65
2022-08-25T10:16:50.291Z,9.15
2022-08-25T10:19:26.609Z,8.48
2022-08-25T10:22:06.077Z,26.30
2022-08-25T10:24:34.959Z,8.55
2022-08-25T10:27:15.425Z,8.45
2022-08-25T10:30:00.086Z,8.77
2022-08-25T10:32:41.066Z,7.88
2022-08-25T10:35:14.783Z,8.68
2022-08-25T10:37:59.901Z,8.35
2022-08-25T10:40:37.228Z,7.47
2022-08-25T10:43:09.125Z,7.75
2022-08-25T10:45:43.873Z,7.43
2022-08-25T10:48:27.329Z,7.60
2022-08-25T10:51:01.495Z,7.63
2022-08-25T10:53:36.089Z,7.60
2022-08-25T10:56:13.793Z,7.80
2022-08-25T10:59:11.001Z,7.88
2022-08-25T11:01:57.155Z,7.82
2022-08-25T11:04:30.190Z,8.93
2022-08-25T11:07:04.313Z,7.57
2022-08-25T11:09:36.392Z,7.55
2022-08-25T11:12:09.881Z,8.27
2022-08-25T11:14:42.953Z,8.23
2022-08-25T11:17:17.614Z,8.38
2022-08-25T11:19:48.959Z,7.82
2022-08-25T11:22:24.557Z,6.75
2022-08-25T11:25:07.518Z,9.05
2022-08-25T11:27:42.661Z,8.02
2022-08-25T11:30:16.692Z,8.50
2022-08-25T11:32:50.585Z,7.78
2022-08-25T11:35:26.543Z,8.00
2022-08-25T11:38:10.749Z,8.07
2022-08-25T11:41:01.090Z,8.18
2022-08-25T11:43:48.040Z,7.72
2022-08-25T11:46:31.037Z,6.82
2022-08-25T11:49:15.172Z,7.43
2022-08-25T11:51:46.795Z,7.57
2022-08-25T11:54:24.885Z,7.88
2022-08-25T11:56:59.386Z,8.13
2022-08-25T12:00:04.679Z,7.82
2022-08-25T12:02:37.751Z,8.48
2022-08-25T12:05:09.935Z,8.30
2022-08-25T12:08:34.343Z,8.40
2022-08-25T12:11:10.653Z,8.77
2022-08-25T12:13:43.236Z,9.07
2022-08-25T12:16:43.957Z,8.93
2022-08-25T12:19:28.032Z,9.00
2022-08-25T12:22:19.553Z,8.27
2022-08-25T12:24:54.950Z,8.27
2022-08-25T12:27:33.750Z,8.52
2022-08-25T12:30:06.817Z,7.50
2022-08-25T12:32:48.630Z,8.15
2022-08-25T12:35:32.293Z,7.60
2022-08-25T12:38:08.950Z,7.82
2022-08-25T12:40:40.585Z,7.45
2022-08-25T12:43:12.467Z,8.07
2022-08-25T12:45:44.724Z,7.85
2022-08-25T12:48:55.924Z,8.35
2022-08-25T12:51:26.844Z,7.93
2022-08-25T12:54:02.396Z,8.55
2022-08-25T12:56:39.545Z,7.90
2022-08-25T12:59:16.692Z,8.25
2022-08-25T13:02:03.084Z,7.45
2022-08-25T13:05:06.295Z,7.40
2022-08-25T13:08:15.337Z,7.28
2022-08-25T13:10:49.760Z,7.72
2022-08-25T13:13:32.457Z,7.15
2022-08-25T13:16:02.645Z,7.72
2022-08-25T13:18:33.078Z,7.65
2022-08-25T13:21:10.486Z,7.93
2022-08-25T13:23:41.834Z,7.35
2022-08-25T13:26:15.235Z,7.55
2022-08-25T13:28:50.388Z,7.32
2022-08-25T13:31:22.199Z,7.65
2022-08-25T13:33:55.884Z,7.35
2022-08-25T13:36:47.040Z,7.30
2022-08-25T13:39:45.730Z,7.15
2022-08-25T13:42:17.088Z,7.30
2022-08-25T13:44:52.456Z,7.75
2022-08-25T13:47:45.234Z,7.15
2022-08-25T13:50:36.725Z,7.07
2022-08-25T13:53:12.246Z,7.25
2022-08-25T13:55:52.260Z,7.97
2022-08-25T13:58:32.492Z,7.75
2022-08-25T14:01:22.903Z,7.70
2022-08-25T14:04:31.401Z,8.10
2022-08-25T14:07:26.880Z,7.45
2022-08-25T14:10:06.217Z,7.75
2022-08-25T14:12:38.018Z,6.90
2022-08-25T14:15:12.726Z,7.95
2022-08-25T14:17:43.531Z,7.85
2022-08-25T14:20:28.573Z,7.70
2022-08-25T14:22:59.481Z,7.60
2022-08-25T14:25:31.271Z,7.55
2022-08-25T14:28:09.108Z,7.65
2022-08-25T14:30:46.436Z,7.38
2022-08-25T14:33:16.519Z,7.40
2022-08-25T14:35:48.126Z,6.93
2022-08-25T14:38:18.123Z,7.15
2022-08-25T14:40:46.515Z,7.25
2022-08-25T14:43:15.880Z,7.70
2022-08-25T14:45:48.355Z,10.75
2022-08-25T14:48:25.241Z,7.40
2022-08-25T14:50:53.474Z,7.47
2022-08-25T14:53:21.560Z,7.18
2022-08-25T14:55:53.702Z,7.15
2022-08-25T14:58:27.417Z,7.05
2022-08-25T15:00:57.648Z,7.25
2022-08-25T15:03:31.721Z,7.13
2022-08-25T15:06:01.438Z,7.30
2022-08-25T15:08:47.330Z,7.10
2022-08-25T15:11:15.566Z,6.90
2022-08-25T15:13:49.373Z,7.35
2022-08-25T15:16:33.858Z,6.70
2022-08-25T15:19:06.626Z,7.68
2022-08-25T15:21:36.193Z,7.10
2022-08-25T15:24:04.954Z,7.55
2022-08-25T15:26:35.157Z,7.45
2022-08-25T15:29:04.768Z,7.03
2022-08-25T15:31:34.084Z,6.88
2022-08-25T15:34:02.018Z,6.63
2022-08-25T15:36:29.931Z,7.47
2022-08-25T15:38:57.926Z,7.03
2022-08-25T15:41:27.853Z,6.60
2022-08-25T15:43:56.609Z,6.53
2022-08-25T15:46:28.681Z,7.47
2022-08-25T15:48:59.691Z,6.85
2022-08-25T15:51:28.454Z,6.25
2022-08-25T15:53:56.665Z,6.88
2022-08-25T15:56:26.665Z,6.22
2022-08-25T15:58:55.593Z,6.63
2022-08-25T16:01:26.060Z,6.15
2022-08-25T16:03:58.276Z,6.57
2022-08-25T16:06:28.123Z,6.50
2022-08-25T16:08:56.129Z,6.22
2022-08-25T16:11:27.994Z,6.80
2022-08-25T16:13:58.725Z,6.00
2022-08-25T16:16:29.221Z,5.63
2022-08-25T16:18:57.713Z,6.35
2022-08-25T16:21:30.079Z,6.78
2022-08-25T16:24:02.584Z,9.50
2022-08-25T16:26:34.817Z,6.45
2022-08-25T16:29:02.720Z,6.35
2022-08-25T16:31:34.617Z,6.70
2022-08-25T16:34:02.837Z,5.57
2022-08-25T16:36:32.098Z,6.40
2022-08-25T16:39:00.973Z,6.85
2022-08-25T16:41:34.082Z,7.00
2022-08-25T16:44:03.286Z,8.38
2022-08-25T16:46:31.674Z,7.93
2022-08-25T16:49:02.958Z,8.07
2022-08-25T16:51:32.381Z,7.27
2022-08-25T16:54:22.272Z,6.90
2022-08-25T16:56:55.214Z,7.25
2022-08-25T16:59:23.864Z,7.30
2022-08-25T17:01:52.527Z,6.47
2022-08-25T17:04:21.032Z,6.90
2022-08-25T17:06:58.810Z,6.60
2022-08-25T17:09:26.691Z,6.35
2022-08-25T17:11:56.892Z,6.60
2022-08-25T17:14:25.336Z,7.03
2022-08-25T17:16:55.000Z,7.07
2022-08-25T17:19:24.965Z,6.80
2022-08-25T17:21:54.500Z,7.07
2022-08-25T17:24:29.299Z,6.50
2022-08-25T17:27:01.326Z,7.85
2022-08-25T17:29:29.605Z,12.10
2022-08-25T17:31:58.446Z,7.97
2022-08-25T17:34:27.887Z,7.10
2022-08-25T17:36:56.514Z,6.65
2022-08-25T17:39:26.759Z,7.28
2022-08-25T17:41:54.690Z,7.07
2022-08-25T17:44:22.583Z,7.22
2022-08-25T17:46:50.841Z,6.18
2022-08-25T17:49:19.819Z,6.95
2022-08-25T17:51:47.742Z,6.88
2022-08-25T17:54:15.665Z,6.68
2022-08-25T17:56:45.304Z,6.70
2022-08-25T17:59:14.094Z,7.43
2022-08-25T18:01:42.591Z,8.23
2022-08-25T18:04:17.161Z,8.05
2022-08-25T18:06:45.643Z,8.48
2022-08-25T18:09:13.627Z,8.85
2022-08-25T18:11:42.056Z,8.30
2022-08-25T18:14:12.598Z,7.93
2022-08-25T18:16:42.243Z,8.75
2022-08-25T18:19:10.755Z,8.63
2022-08-25T18:21:38.909Z,9.05
2022-08-25T18:24:08.105Z,9.98
2022-08-25T18:26:36.650Z,9.82
2022-08-25T18:29:05.226Z,10.25
2022-08-25T18:31:34.559Z,9.07
2022-08-25T18:34:04.985Z,8.53
2022-08-25T18:36:33.658Z,9.32
2022-08-25T18:39:25.090Z,8.13
2022-08-25T18:41:53.148Z,8.30
2022-08-25T18:44:21.820Z,8.52
2022-08-25T18:46:51.074Z,8.18
2022-08-25T18:49:22.433Z,7.95
2022-08-25T18:51:54.672Z,7.72
2022-08-25T18:54:23.071Z,8.43
2022-08-25T18:56:52.530Z,7.82
2022-08-25T18:59:23.813Z,7.93
2022-08-25T19:01:54.628Z,7.43
2022-08-25T19:04:28.686Z,8.00
2022-08-25T19:07:00.155Z,8.05
2022-08-25T19:09:28.062Z,7.60
2022-08-25T19:11:57.049Z,7.80
2022-08-25T19:14:26.319Z,7.28
2022-08-25T19:16:57.865Z,6.80
2022-08-25T19:19:26.198Z,7.85
2022-08-25T19:21:54.076Z,7.60
2022-08-25T19:24:22.049Z,6.55
2022-08-25T19:26:54.331Z,7.20
2022-08-25T19:29:24.107Z,6.85
2022-08-25T19:31:52.077Z,6.72
2022-08-25T19:34:27.984Z,6.78
2022-08-25T19:36:57.147Z,6.78
2022-08-25T19:39:27.408Z,6.07
2022-08-25T19:41:56.594Z,6.85
2022-08-25T19:44:26.137Z,6.68
2022-08-25T19:46:56.488Z,7.20
2022-08-25T19:49:34.304Z,7.30
2022-08-25T19:52:10.591Z,6.50
2022-08-25T19:54:44.490Z,6.63
2022-08-25T19:57:14.380Z,7.63
2022-08-25T19:59:57.315Z,7.82
2022-08-25T20:02:29.489Z,7.28
2022-08-25T20:05:00.412Z,7.50
2022-08-25T20:07:31.591Z,7.82
2022-08-25T20:10:01.441Z,7.97
2022-08-25T20:12:29.873Z,7.22
2022-08-25T20:14:57.804Z,8.55
2022-08-25T20:17:28.518Z,7.63
2022-08-25T20:20:00.548Z,7.95
2022-08-25T20:22:31.177Z,7.90
2022-08-25T20:24:59.948Z,7.53
2022-08-25T20:27:32.855Z,8.32
2022-08-25T20:30:02.795Z,7.72
2022-08-25T20:32:32.302Z,8.07
2022-08-25T20:35:01.895Z,7.13
2022-08-25T20:37:30.502Z,7.68
2022-08-25T20:39:59.170Z,7.40
2022-08-25T20:42:27.521Z,7.03
2022-08-25T20:44:55.649Z,6.93
2022-08-25T20:47:23.585Z,7.13
2022-08-25T20:49:51.450Z,7.30
2022-08-25T20:52:21.319Z,8.20
2022-08-25T20:54:51.044Z,7.57
2022-08-25T20:57:25.764Z,7.80
2022-08-25T20:59:55.103Z,6.28
2022-08-25T21:02:23.649Z,6.88
2022-08-25T21:04:52.197Z,6.97
2022-08-25T21:07:23.753Z,7.65
2022-08-25T21:09:52.367Z,7.17
2022-08-25T21:12:21.294Z,7.68
2022-08-25T21:14:49.285Z,7.22
2022-08-25T21:17:19.180Z,8.93
2022-08-25T21:22:22.310Z,7.07
2022-08-25T21:24:51.418Z,7.38
2022-08-25T21:27:19.329Z,6.60
2022-08-25T21:29:50.708Z,6.50
2022-08-25T21:32:22.316Z,7.63
2022-08-25T21:34:52.641Z,7.53
2022-08-25T21:37:23.679Z,6.70
2022-08-25T21:39:52.086Z,7.30
2022-08-25T21:42:20.286Z,6.85
2022-08-25T21:44:48.189Z,7.10
2022-08-25T21:47:16.072Z,7.03
2022-08-25T21:49:49.606Z,7.50
2022-08-25T21:52:17.796Z,7.72
2022-08-25T21:54:47.453Z,7.47
2022-08-25T21:57:17.878Z,7.97
2022-08-25T21:59:47.363Z,6.25
2022-08-25T22:06:37.078Z,6.78
2022-08-25T22:09:05.816Z,7.05
2022-08-25T22:11:34.049Z,7.38
2022-08-25T22:14:05.458Z,7.63
2022-08-25T22:16:35.895Z,8.27
2022-08-25T22:19:05.420Z,7.38
2022-08-25T22:21:35.522Z,7.90
2022-08-25T22:24:04.064Z,7.68
2022-08-25T22:26:33.624Z,7.47
2022-08-25T22:29:02.020Z,7.82
2022-08-25T22:31:30.541Z,7.65
2022-08-25T22:33:58.433Z,8.40
2022-08-25T22:36:30.707Z,7.40
2022-08-25T22:39:00.855Z,7.93
2022-08-25T22:41:31.487Z,7.53
2022-08-25T22:44:01.535Z,7.50
2022-08-25T22:46:33.627Z,7.30
2022-08-25T22:49:04.019Z,6.63
2022-08-25T22:51:32.089Z,7.75
2022-08-25T22:54:03.271Z,8.60
2022-08-25T22:56:34.907Z,7.55
2022-08-25T22:59:08.715Z,8.30
2022-08-25T23:01:37.845Z,8.80
2022-08-25T23:04:08.102Z,7.75
2022-08-25T23:06:36.269Z,8.55
2022-08-25T23:09:07.897Z,8.55
2022-08-25T23:11:38.728Z,8.43
2022-08-25T23:14:10.888Z,8.10
2022-08-25T23:16:38.960Z,8.05
2022-08-25T23:19:07.004Z,7.57
2022-08-25T23:21:53.231Z,8.48
2022-08-25T23:24:29.342Z,8.88
2022-08-25T23:26:58.447Z,8.50
2022-08-25T23:29:27.720Z,8.30
2022-08-25T23:31:56.606Z,8.55
2022-08-25T23:34:24.848Z,8.30
2022-08-25T23:36:53.332Z,8.82
2022-08-25T23:39:22.189Z,9.18
2022-08-25T23:41:52.068Z,9.60
2022-08-25T23:44:20.890Z,7.78
2022-08-25T23:46:48.951Z,8.02
2022-08-25T23:49:18.965Z,10.15
2022-08-25T23:51:48.865Z,8.57
2022-08-25T23:54:17.759Z,8.57
2022-08-25T23:56:52.413Z,8.55
2022-08-25T23:59:24.499Z,9.57
